Time;durP1;ratioP1;P1;durP2;ratioP2;P2;SDS_P1;SDS_P2;PMS_P1;PMS_P2;Temp;Humidity;BMP_temperature;BMP_pressure;BME280_temperature;BME280_humidity;BME280_pressure;Samples;Min_cycle;Max_cycle;Signal;HPM_P1;HPM_P2
2021/11/08 00:04:46;;;;;;;3.70;3.40;;;11.30;43.40;;;;;;10337741;28;20871;-71
2021/11/08 00:09:50;;;;;;;4.57;3.43;;;11.30;43.40;;;;;;10340070;28;20230;-70
2021/11/08 00:14:57;;;;;;;4.30;3.90;;;11.20;43.40;;;;;;10344115;28;20230;-70
2021/11/08 00:20:05;;;;;;;3.70;3.40;;;11.20;43.60;;;;;;10338981;28;20252;-70
2021/11/08 00:25:08;;;;;;;3.97;3.40;;;11.10;43.40;;;;;;10341748;28;20230;-70
2021/11/08 00:30:13;;;;;;;4.43;3.60;;;11.10;43.60;;;;;;10337142;28;20222;-70
2021/11/08 00:35:17;;;;;;;3.63;3.33;;;11.10;43.70;;;;;;10340480;28;20741;-70
2021/11/08 00:40:20;;;;;;;4.03;3.10;;;11.10;43.50;;;;;;10337240;28;20230;-70
2021/11/08 00:45:25;;;;;;;4.70;3.43;;;11.10;43.70;;;;;;10339676;28;20223;-71
2021/11/08 00:50:29;;;;;;;3.27;3.00;;;11.20;43.70;;;;;;10342641;28;20856;-70
2021/11/08 00:55:33;;;;;;;5.50;3.90;;;11.20;43.60;;;;;;10337564;28;20230;-70
2021/11/08 01:00:38;;;;;;;4.43;3.63;;;11.20;43.50;;;;;;10340749;28;20223;-71
2021/11/08 01:05:42;;;;;;;3.97;3.30;;;11.20;43.40;;;;;;10333697;28;20351;-70
2021/11/08 01:10:45;;;;;;;4.93;3.40;;;11.20;43.30;;;;;;10339546;28;20235;-70
2021/11/08 01:15:50;;;;;;;3.27;2.97;;;11.20;43.20;;;;;;10338397;28;20752;-70
2021/11/08 01:20:54;;;;;;;3.27;2.97;;;11.20;43.30;;;;;;10335074;28;20249;-70
2021/11/08 01:26:01;;;;;;;3.70;3.00;;;11.20;43.10;;;;;;10335555;28;20711;-70
2021/11/08 01:31:08;;;;;;;3.40;3.10;;;11.20;43.10;;;;;;10337971;28;20229;-70
2021/11/08 01:36:17;;;;;;;4.67;3.43;;;11.20;43.10;;;;;;10346056;28;20256;-71
2021/11/08 01:41:22;;;;;;;4.90;3.10;;;11.10;42.80;;;;;;10343408;28;20230;-70
2021/11/08 01:46:27;;;;;;;3.83;3.03;;;11.10;42.90;;;;;;10345771;28;20244;-70
2021/11/08 01:51:30;;;;;;;5.03;3.20;;;11.10;42.70;;;;;;10345533;28;20231;-70
2021/11/08 01:56:33;;;;;;;6.83;3.40;;;11.00;42.60;;;;;;10347709;28;20227;-70
2021/11/08 02:01:38;;;;;;;3.67;2.53;;;10.90;42.60;;;;;;10342271;28;20238;-71
2021/11/08 02:06:41;;;;;;;4.47;3.00;;;10.90;42.90;;;;;;10343045;28;20239;-70
2021/11/08 02:11:45;;;;;;;5.30;3.20;;;10.80;42.90;;;;;;10341039;28;20227;-70
2021/11/08 02:16:50;;;;;;;5.13;3.00;;;10.70;43.00;;;;;;10342853;28;20229;-70
2021/11/08 02:21:55;;;;;;;6.83;3.30;;;10.80;43.20;;;;;;10339125;28;20222;-70
2021/11/08 02:26:59;;;;;;;4.47;3.23;;;10.70;43.10;;;;;;10341611;28;20222;-70
2021/11/08 02:32:04;;;;;;;6.30;3.60;;;10.70;43.10;;;;;;10344813;28;20239;-70
2021/11/08 02:37:09;;;;;;;5.40;3.17;;;10.70;43.10;;;;;;10344609;28;20234;-71
2021/11/08 02:42:12;;;;;;;4.93;3.03;;;10.70;43.00;;;;;;10338433;28;20223;-70
2021/11/08 02:47:15;;;;;;;3.43;2.17;;;10.80;43.00;;;;;;10347137;28;20226;-70
2021/11/08 02:52:24;;;;;;;5.53;3.10;;;10.80;42.80;;;;;;10344211;28;20233;-70
2021/11/08 02:57:28;;;;;;;5.67;3.33;;;10.80;42.70;;;;;;10342552;28;20231;-70
2021/11/08 03:02:33;;;;;;;4.37;3.30;;;10.70;42.50;;;;;;10343512;28;20564;-70
2021/11/08 03:07:38;;;;;;;4.43;3.10;;;10.70;42.50;;;;;;10341460;28;20602;-70
2021/11/08 03:12:41;;;;;;;5.13;3.00;;;10.60;42.50;;;;;;10342723;28;20234;-71
2021/11/08 03:17:46;;;;;;;5.83;3.27;;;10.60;42.40;;;;;;10340117;28;20222;-70
2021/11/08 03:22:53;;;;;;;4.47;2.70;;;10.60;42.40;;;;;;10336004;28;20222;-70
2021/11/08 03:27:58;;;;;;;5.27;3.20;;;10.50;43.10;;;;;;10340874;28;20721;-70
2021/11/08 03:33:01;;;;;;;7.17;2.80;;;10.50;42.30;;;;;;10348503;28;20237;-70
2021/11/08 03:38:09;;;;;;;5.90;3.30;;;10.40;42.20;;;;;;10343612;28;20223;-70
2021/11/08 03:43:18;;;;;;;6.07;3.23;;;10.30;42.20;;;;;;10339311;28;20230;-70
2021/11/08 03:48:22;;;;;;;3.17;2.73;;;10.10;42.00;;;;;;10343523;28;20261;-70
2021/11/08 03:53:26;;;;;;;6.03;3.20;;;10.00;42.10;;;;;;10337183;28;20235;-71
2021/11/08 03:58:30;;;;;;;4.00;2.63;;;9.90;43.00;;;;;;10338286;28;20231;-70
2021/11/08 04:03:34;;;;;;;3.90;2.90;;;9.90;43.10;;;;;;10341508;28;20219;-70
2021/11/08 04:08:38;;;;;;;5.30;3.37;;;9.80;42.90;;;;;;10340808;28;20232;-70
2021/11/08 04:13:42;;;;;;;5.77;3.40;;;9.70;42.90;;;;;;10341960;28;20222;-71
2021/11/08 04:18:49;;;;;;;5.37;3.70;;;9.60;43.10;;;;;;10338918;28;20257;-70
2021/11/08 04:23:55;;;;;;;6.40;3.43;;;9.60;43.10;;;;;;10343423;28;20222;-70
2021/11/08 04:29:01;;;;;;;3.87;3.47;;;9.50;43.00;;;;;;10338860;28;20230;-70
2021/11/08 04:34:16;;;;;;;4.73;3.60;;;9.40;43.00;;;;;;10339036;28;20235;-70
2021/11/08 04:39:28;;;;;;;3.60;2.83;;;9.40;43.10;;;;;;10336838;28;20714;-70
2021/11/08 04:44:49;;;;;;;3.70;3.30;;;9.30;43.00;;;;;;10340142;28;20823;-70
2021/11/08 04:50:03;;;;;;;4.13;3.60;;;9.30;42.90;;;;;;10338816;28;20620;-71
2021/11/08 04:55:14;;;;;;;4.60;3.50;;;9.30;42.70;;;;;;10343939;28;20240;-70
2021/11/08 05:32:33;;;;;;;4.67;3.50;;;8.80;42.70;;;;;;10346220;28;20219;-69
2021/11/08 05:37:41;;;;;;;5.90;5.17;;;8.70;42.40;;;;;;10346329;28;20613;-69
2021/11/08 05:42:46;;;;;;;5.83;5.33;;;8.70;42.30;;;;;;10349534;28;20229;-69
2021/11/08 05:47:49;;;;;;;7.80;7.10;;;8.60;42.10;;;;;;10344883;28;20737;-69
2021/11/08 05:52:54;;;;;;;10.20;9.33;;;8.50;42.10;;;;;;10347007;28;20227;-69
2021/11/08 05:58:08;;;;;;;14.47;12.97;;;8.40;42.30;;;;;;10341549;28;20733;-70
2021/11/08 06:51:25;;;;;;;12.97;7.80;;;8.40;42.20;;;;;;10340494;28;20239;-69
2021/11/08 06:56:32;;;;;;;48.87;6.00;;;8.40;43.00;;;;;;10340464;28;20253;-68
2021/11/08 07:01:37;;;;;;;19.37;4.77;;;8.30;41.80;;;;;;10343649;28;20233;-68
2021/11/08 07:06:40;;;;;;;5.00;4.20;;;8.00;41.90;;;;;;10338810;28;20277;-69
2021/11/08 07:11:44;;;;;;;7.77;6.90;;;7.80;42.50;;;;;;10340298;28;20225;-68
2021/11/08 07:16:48;;;;;;;8.03;5.17;;;7.70;42.80;;;;;;10338566;28;20233;-68
2021/11/08 07:21:52;;;;;;;7.17;6.57;;;7.70;43.20;;;;;;10337660;28;20223;-68
2021/11/08 07:26:56;;;;;;;6.53;5.53;;;7.80;43.40;;;;;;10338075;28;20610;-68
2021/11/08 07:32:00;;;;;;;5.63;5.13;;;7.80;43.50;;;;;;10337416;28;20230;-68
2021/11/08 07:37:04;;;;;;;6.83;6.30;;;7.90;44.40;;;;;;10339114;28;20728;-68
2021/11/08 07:42:08;;;;;;;7.27;6.50;;;8.00;43.80;;;;;;10336977;28;20230;-69
2021/11/08 07:47:13;;;;;;;6.77;5.77;;;8.10;44.10;;;;;;10337314;28;20751;-69
2021/11/08 07:52:16;;;;;;;6.73;5.20;;;8.20;44.40;;;;;;10335748;28;20235;-69
2021/11/08 07:57:19;;;;;;;9.00;6.27;;;8.40;44.50;;;;;;10335265;28;20223;-69
2021/11/08 08:02:24;;;;;;;7.57;5.87;;;8.50;44.60;;;;;;10339516;28;20309;-69
2021/11/08 08:07:27;;;;;;;6.33;5.60;;;8.60;44.80;;;;;;10340650;28;20219;-69
2021/11/08 08:12:34;;;;;;;6.63;6.03;;;8.70;44.90;;;;;;10339132;28;20711;-69
2021/11/08 08:17:39;;;;;;;9.10;5.57;;;8.90;45.00;;;;;;10343249;28;20222;-69
2021/11/08 08:22:42;;;;;;;8.77;5.10;;;9.00;45.10;;;;;;10335614;28;20618;-69
2021/11/08 08:27:45;;;;;;;6.30;5.53;;;9.10;45.00;;;;;;10338493;28;20231;-69
2021/11/08 08:32:50;;;;;;;8.70;6.00;;;9.20;45.20;;;;;;10334834;28;20739;-69
2021/11/08 08:37:53;;;;;;;18.63;10.73;;;9.40;45.20;;;;;;10337299;28;20237;-68
2021/11/08 08:42:56;;;;;;;11.63;7.10;;;9.50;45.20;;;;;;10336301;28;20218;-70
2021/11/08 08:48:01;;;;;;;11.00;6.70;;;9.60;45.40;;;;;;10334056;28;20231;-69
2021/11/08 08:53:04;;;;;;;7.53;4.90;;;9.80;45.50;;;;;;10335103;28;20220;-69
2021/11/08 08:58:08;;;;;;;7.07;4.63;;;10.00;44.40;;;;;;10337212;28;20609;-69
2021/11/08 09:03:12;;;;;;;8.70;4.67;;;10.10;44.20;;;;;;10338957;28;20230;-68
2021/11/08 09:08:16;;;;;;;8.53;5.20;;;10.20;44.00;;;;;;10338143;28;20230;-69
2021/11/08 09:13:19;;;;;;;6.40;4.33;;;10.30;43.70;;;;;;10338384;28;20241;-69
2021/11/08 09:18:24;;;;;;;11.07;4.90;;;10.40;43.60;;;;;;10336221;28;20231;-69
2021/11/08 09:23:30;;;;;;;9.83;5.03;;;10.50;43.80;;;;;;10332210;28;20223;-68
2021/11/08 09:28:34;;;;;;;7.70;5.70;;;10.50;44.00;;;;;;10336366;28;20226;-69
2021/11/08 09:33:39;;;;;;;9.37;5.13;;;10.70;44.30;;;;;;10336027;28;20630;-69
2021/11/08 09:38:50;;;;;;;8.13;4.77;;;10.90;44.30;;;;;;10335895;28;20611;-69
2021/11/08 09:43:56;;;;;;;9.20;4.73;;;11.00;43.90;;;;;;10340647;28;20306;-68
2021/11/08 09:49:03;;;;;;;12.03;4.70;;;11.20;43.90;;;;;;10334874;28;20229;-69
2021/11/08 09:54:10;;;;;;;10.17;4.70;;;11.30;43.50;;;;;;10335315;28;20222;-71
2021/11/08 09:59:14;;;;;;;9.07;4.60;;;11.30;43.40;;;;;;10337089;28;20233;-69
2021/11/08 10:04:21;;;;;;;8.53;4.53;;;11.40;43.40;;;;;;10344465;28;20327;-69
2021/11/08 10:09:24;;;;;;;9.10;4.13;;;11.60;43.40;;;;;;10334935;28;20254;-69
2021/11/08 10:14:28;;;;;;;10.40;5.17;;;11.60;43.40;;;;;;10337372;28;20256;-68
2021/11/08 10:19:35;;;;;;;9.23;4.90;;;11.70;43.30;;;;;;10335442;28;20712;-69
2021/11/08 10:24:41;;;;;;;8.97;4.33;;;11.70;42.80;;;;;;10334256;28;20297;-68
2021/11/08 10:29:47;;;;;;;8.53;3.97;;;11.80;43.00;;;;;;10336921;28;20223;-69
2021/11/08 10:34:56;;;;;;;8.77;4.10;;;11.90;43.00;;;;;;10337195;28;20246;-69
2021/11/08 10:40:01;;;;;;;10.63;4.27;;;12.00;42.50;;;;;;10343273;28;20223;-69
2021/11/08 10:45:05;;;;;;;11.20;4.40;;;12.00;42.40;;;;;;10339731;28;20249;-69
2021/11/08 10:50:16;;;;;;;6.73;4.10;;;12.00;41.70;;;;;;10345286;28;20246;-69
2021/11/08 10:55:30;;;;;;;9.87;4.70;;;12.00;43.90;;;;;;10345394;28;20235;-68
2021/11/08 11:00:33;;;;;;;7.53;3.30;;;12.10;41.90;;;;;;10338939;28;20749;-69
2021/11/08 11:05:41;;;;;;;9.37;3.67;;;12.20;42.30;;;;;;10338747;28;20595;-69
2021/11/08 11:10:53;;;;;;;10.03;3.00;;;12.30;42.00;;;;;;10340851;28;20624;-69
2021/11/08 11:16:02;;;;;;;6.97;3.23;;;12.40;40.80;;;;;;10343814;28;20549;-69
2021/11/08 11:21:23;;;;;;;7.87;3.03;;;12.50;41.30;;;;;;10338693;28;20223;-70
2021/11/08 11:26:29;;;;;;;7.97;3.23;;;12.60;40.80;;;;;;10333551;28;20231;-69
2021/11/08 11:31:37;;;;;;;6.80;2.83;;;12.60;41.50;;;;;;10342023;28;20234;-69
2021/11/08 11:36:43;;;;;;;6.60;3.50;;;12.70;40.60;;;;;;10321799;28;20230;-69
2021/11/08 11:41:48;;;;;;;11.63;3.77;;;12.70;41.00;;;;;;10332227;28;20725;-69
2021/11/08 11:46:54;;;;;;;7.50;3.23;;;12.70;41.00;;;;;;10334119;28;20294;-69
2021/11/08 11:52:00;;;;;;;10.20;3.80;;;12.70;40.80;;;;;;10325205;28;20230;-69
2021/11/08 11:57:04;;;;;;;7.13;3.13;;;12.60;40.60;;;;;;10320576;28;20245;-69
2021/11/08 12:02:18;;;;;;;11.40;4.20;;;12.60;41.10;;;;;;10322054;28;20233;-69
2021/11/08 12:07:23;;;;;;;7.80;3.57;;;12.60;40.80;;;;;;10318331;28;20717;-69
2021/11/08 12:12:27;;;;;;;7.73;3.50;;;12.60;41.00;;;;;;10319565;28;20238;-68
2021/11/08 12:17:36;;;;;;;8.10;3.43;;;12.60;40.80;;;;;;10321186;28;20867;-69
2021/11/08 12:22:42;;;;;;;9.23;3.90;;;12.50;40.50;;;;;;10319412;28;20222;-69
2021/11/08 12:27:49;;;;;;;6.87;3.57;;;12.50;41.00;;;;;;10327433;28;20226;-69
2021/11/08 12:32:54;;;;;;;10.07;4.20;;;12.60;41.20;;;;;;10324818;28;20238;-69
2021/11/08 12:37:59;;;;;;;6.33;3.47;;;12.60;41.30;;;;;;10324325;28;20223;-68
2021/11/08 12:43:02;;;;;;;8.63;3.67;;;12.70;41.00;;;;;;10318342;28;20215;-68
2021/11/08 12:48:08;;;;;;;7.50;3.40;;;12.70;41.20;;;;;;10327239;28;20234;-68
2021/11/08 12:53:24;;;;;;;7.83;3.60;;;12.70;41.20;;;;;;10327396;28;20794;-68
2021/11/08 12:58:36;;;;;;;7.90;3.30;;;12.80;40.30;;;;;;10329137;28;20289;-68
2021/11/08 13:03:40;;;;;;;6.20;3.20;;;12.80;40.40;;;;;;10331843;28;20599;-68
2021/11/08 13:08:45;;;;;;;9.93;3.50;;;12.90;41.00;;;;;;10332527;28;20233;-68
2021/11/08 13:14:01;;;;;;;5.70;3.00;;;12.90;40.60;;;;;;10331600;28;20226;-68
2021/11/08 13:19:07;;;;;;;7.43;3.00;;;13.00;39.80;;;;;;10329933;28;20218;-68
2021/11/08 13:24:13;;;;;;;6.40;2.80;;;13.00;39.90;;;;;;10321207;28;20746;-68
2021/11/08 13:29:18;;;;;;;7.30;2.93;;;13.00;39.50;;;;;;10320974;28;20225;-68
2021/11/08 13:34:22;;;;;;;6.57;3.07;;;13.00;40.00;;;;;;10326626;28;20730;-68
2021/11/08 13:39:27;;;;;;;7.50;3.13;;;13.00;40.40;;;;;;10323550;28;20246;-68
2021/11/08 13:44:31;;;;;;;9.57;3.10;;;13.00;39.80;;;;;;10325816;28;20237;-68
2021/11/08 13:49:34;;;;;;;9.77;3.00;;;13.00;40.00;;;;;;10324869;28;20241;-68
2021/11/08 13:54:39;;;;;;;4.30;2.50;;;13.00;40.10;;;;;;10332863;28;20237;-68
2021/11/08 13:59:45;;;;;;;8.77;3.00;;;13.00;39.80;;;;;;10334399;28;20215;-68
2021/11/08 14:04:50;;;;;;;7.73;2.90;;;13.00;39.90;;;;;;10328421;28;20652;-68
2021/11/08 14:10:01;;;;;;;8.47;3.53;;;13.00;39.50;;;;;;10317396;28;20226;-68
2021/11/08 14:15:06;;;;;;;5.80;2.97;;;13.10;40.40;;;;;;10316389;28;20401;-68
2021/11/08 14:20:12;;;;;;;8.13;2.90;;;13.10;39.50;;;;;;10317614;28;20600;-68
2021/11/08 14:25:17;;;;;;;9.80;3.17;;;13.10;39.40;;;;;;10322417;28;20230;-68
2021/11/08 14:30:22;;;;;;;6.23;2.63;;;13.00;39.30;;;;;;10320969;28;20233;-68
2021/11/08 14:35:29;;;;;;;5.90;3.17;;;13.00;39.40;;;;;;10333094;28;20234;-68
2021/11/08 14:40:39;;;;;;;6.63;3.10;;;12.90;39.40;;;;;;10342798;28;20230;-68
2021/11/08 14:45:52;;;;;;;6.07;2.90;;;12.90;38.40;;;;;;10347436;28;20218;-68
2021/11/08 14:51:05;;;;;;;6.70;4.87;;;12.90;39.50;;;;;;10343944;28;20226;-69
2021/11/08 14:56:19;;;;;;;7.87;4.50;;;12.80;38.40;;;;;;10341943;28;20229;-69
2021/11/08 15:01:22;;;;;;;8.23;3.87;;;12.80;38.60;;;;;;10343708;28;20234;-69
2021/11/08 15:06:26;;;;;;;8.77;4.23;;;12.80;39.40;;;;;;10337914;28;20739;-68
2021/11/08 15:11:30;;;;;;;7.50;4.33;;;12.70;40.10;;;;;;10345865;28;20241;-69
2021/11/08 15:16:44;;;;;;;6.43;3.50;;;12.70;40.90;;;;;;10346902;28;20242;-75
2021/11/08 15:21:50;;;;;;;6.47;3.90;;;12.70;39.80;;;;;;10337993;28;20593;-74
2021/11/08 15:26:57;;;;;;;6.23;3.47;;;12.80;40.40;;;;;;10341780;28;20252;-74
2021/11/08 15:32:11;;;;;;;7.43;4.33;;;12.90;39.60;;;;;;10346627;28;20238;-74
2021/11/08 15:37:22;;;;;;;6.47;4.33;;;12.80;39.40;;;;;;10344156;28;20683;-74
2021/11/08 15:42:27;;;;;;;7.17;3.63;;;12.80;38.90;;;;;;10347780;28;20253;-74
2021/11/08 15:47:30;;;;;;;4.77;2.67;;;12.70;39.00;;;;;;10342064;28;20761;-74
2021/11/08 15:52:37;;;;;;;4.63;2.73;;;12.60;39.30;;;;;;10346671;28;20235;-74
2021/11/08 15:57:42;;;;;;;10.63;5.97;;;12.50;39.20;;;;;;10343660;28;20585;-74
2021/11/08 16:02:45;;;;;;;7.17;4.37;;;12.40;38.80;;;;;;10335437;28;20235;-74
2021/11/08 16:07:48;;;;;;;5.87;3.20;;;12.30;39.10;;;;;;10339189;28;20223;-70
2021/11/08 16:12:52;;;;;;;6.03;3.33;;;12.20;38.90;;;;;;10343251;28;20749;-71
2021/11/08 16:17:56;;;;;;;9.30;4.87;;;12.10;38.70;;;;;;10344306;28;20737;-72
2021/11/08 16:22:59;;;;;;;7.30;4.40;;;12.00;38.70;;;;;;10341753;28;21004;-70
2021/11/08 16:28:05;;;;;;;11.23;6.70;;;11.90;38.80;;;;;;10341252;28;20237;-70
2021/11/08 16:33:14;;;;;;;10.13;6.07;;;11.80;38.60;;;;;;10345039;28;20227;-70
2021/11/08 16:38:20;;;;;;;9.23;6.70;;;11.70;38.40;;;;;;10330684;28;20231;-70
2021/11/08 16:43:25;;;;;;;13.27;9.47;;;11.60;38.50;;;;;;10327573;28;21055;-70
2021/11/08 16:48:31;;;;;;;13.20;9.30;;;11.40;38.40;;;;;;10330636;28;20234;-70
2021/11/08 16:53:35;;;;;;;8.73;6.90;;;11.40;38.70;;;;;;10330560;28;20244;-69
2021/11/08 16:58:41;;;;;;;9.07;8.10;;;11.30;38.80;;;;;;10332349;28;20241;-69
2021/11/08 17:03:45;;;;;;;7.53;6.73;;;11.20;38.50;;;;;;10327123;28;20227;-70
2021/11/08 17:08:53;;;;;;;11.10;8.33;;;11.10;38.90;;;;;;10338686;28;20230;-69
2021/11/08 17:13:59;;;;;;;10.07;6.90;;;11.00;38.30;;;;;;10341919;28;20305;-72
2021/11/08 17:19:03;;;;;;;11.67;7.27;;;10.90;38.30;;;;;;10343017;28;20226;-72
2021/11/08 17:24:12;;;;;;;11.10;7.77;;;10.80;38.40;;;;;;10343042;28;20309;-72
2021/11/08 17:29:19;;;;;;;12.10;10.57;;;10.70;38.40;;;;;;10343576;28;20223;-72
2021/11/08 17:34:22;;;;;;;10.13;9.07;;;10.60;38.30;;;;;;10346268;28;20244;-72
2021/11/08 17:39:25;;;;;;;15.70;13.17;;;10.50;38.30;;;;;;10343160;28;20235;-72
2021/11/08 17:44:30;;;;;;;17.07;12.37;;;10.40;38.10;;;;;;10343649;28;20338;-74
2021/11/08 17:49:33;;;;;;;11.37;10.07;;;10.30;37.90;;;;;;10342804;28;20267;-72
2021/11/08 17:54:37;;;;;;;11.83;9.27;;;10.10;38.30;;;;;;10337480;28;20310;-69
2021/11/08 17:59:42;;;;;;;10.13;8.97;;;10.00;38.60;;;;;;10340560;28;20218;-69
2021/11/08 18:04:46;;;;;;;10.83;8.90;;;9.90;39.60;;;;;;10345381;28;20233;-71
2021/11/08 18:09:49;;;;;;;11.93;8.57;;;9.90;39.40;;;;;;10344858;28;20228;-69
2021/11/08 18:14:53;;;;;;;10.50;8.53;;;9.80;39.90;;;;;;10345637;28;20249;-69
2021/11/08 18:19:59;;;;;;;13.00;10.63;;;9.60;39.40;;;;;;10337533;28;20223;-69
2021/11/08 18:25:12;;;;;;;11.40;10.20;;;9.50;39.50;;;;;;10342528;28;20231;-69
2021/11/08 18:30:17;;;;;;;13.90;11.73;;;9.40;39.50;;;;;;10340005;28;20297;-72
2021/11/08 18:40:30;;;;;;;14.90;12.77;;;9.30;39.70;;;;;;10266877;28;20228;-72
2021/11/08 18:45:35;;;;;;;15.40;13.73;;;9.20;39.60;;;;;;10282240;28;20613;-72
2021/11/08 18:50:40;;;;;;;13.07;10.93;;;9.20;39.50;;;;;;10348122;28;20599;-73
2021/11/08 18:55:44;;;;;;;10.63;9.10;;;9.10;39.90;;;;;;10345826;28;20237;-72
2021/11/08 19:00:52;;;;;;;9.43;8.37;;;9.10;39.80;;;;;;10344447;28;20691;-72
2021/11/08 19:06:10;;;;;;;9.60;8.00;;;9.00;39.50;;;;;;10343825;28;20796;-72
2021/11/08 19:11:14;;;;;;;9.73;7.63;;;9.00;39.80;;;;;;10346658;28;20218;-72
2021/11/08 19:16:19;;;;;;;13.50;11.10;;;9.00;40.00;;;;;;10343478;28;20758;-72
2021/11/08 19:21:23;;;;;;;12.30;11.00;;;8.90;39.60;;;;;;10336481;28;20364;-72
2021/11/08 19:26:26;;;;;;;12.13;9.77;;;8.80;39.70;;;;;;10344104;28;20245;-72
2021/11/08 19:31:33;;;;;;;10.40;9.27;;;8.70;39.80;;;;;;10338925;28;20239;-73
2021/11/08 19:41:57;;;;;;;8.00;7.20;;;8.50;39.70;;;;;;10342195;28;20214;-73
2021/11/08 19:47:01;;;;;;;11.83;9.37;;;8.50;39.70;;;;;;10341702;28;20601;-73
2021/11/08 19:52:06;;;;;;;10.60;9.50;;;8.50;40.40;;;;;;10339556;28;20215;-73
2021/11/08 19:57:09;;;;;;;10.23;9.17;;;8.40;39.60;;;;;;10341279;28;20227;-73
2021/11/08 20:02:14;;;;;;;10.53;9.10;;;8.30;39.50;;;;;;10348201;28;20691;-73
2021/11/08 20:07:20;;;;;;;13.97;11.13;;;8.30;39.50;;;;;;10340488;28;20307;-73
2021/11/08 20:12:27;;;;;;;13.50;10.47;;;8.20;39.40;;;;;;10338104;28;20244;-73
2021/11/08 20:17:31;;;;;;;12.63;10.00;;;8.10;39.30;;;;;;10339788;28;20327;-73
2021/11/08 20:22:34;;;;;;;8.47;7.67;;;8.10;39.30;;;;;;10343804;28;20235;-73
2021/11/08 20:27:38;;;;;;;11.53;8.70;;;8.00;39.30;;;;;;10342472;28;20224;-73
2021/11/08 20:32:59;;;;;;;11.57;10.33;;;8.00;39.30;;;;;;10338881;28;20237;-73
2021/11/08 20:38:07;;;;;;;12.87;9.57;;;7.90;39.20;;;;;;10340437;28;20229;-73
2021/11/08 20:43:31;;;;;;;10.83;8.73;;;7.80;39.10;;;;;;10340362;28;20234;-73
2021/11/08 20:54:07;;;;;;;10.50;9.43;;;7.70;39.30;;;;;;10341054;28;20285;-73
2021/11/08 20:59:20;;;;;;;9.60;7.97;;;7.70;39.40;;;;;;10337641;28;20671;-73
2021/11/08 21:04:42;;;;;;;11.10;9.33;;;7.70;39.40;;;;;;10340096;28;20242;-73
2021/11/08 21:10:10;;;;;;;14.30;10.50;;;7.70;39.40;;;;;;10338180;28;20224;-72
2021/11/08 21:15:15;;;;;;;14.30;12.33;;;7.60;38.90;;;;;;10336384;28;20236;-73
2021/11/08 21:20:20;;;;;;;12.90;11.43;;;7.60;39.00;;;;;;10339176;28;20637;-72
2021/11/08 21:25:23;;;;;;;13.13;10.67;;;7.60;39.00;;;;;;10332796;28;20231;-72
2021/11/08 21:31:03;;;;;;;15.47;11.33;;;7.50;38.90;;;;;;10331997;28;20238;-72
2021/11/08 21:41:28;;;;;;;13.50;11.00;;;7.50;38.80;;;;;;10334618;28;20226;-73
2021/11/08 21:46:33;;;;;;;10.40;9.00;;;7.40;39.20;;;;;;10332379;28;20606;-73
2021/11/08 21:51:39;;;;;;;9.37;8.37;;;7.40;39.00;;;;;;10330712;28;20219;-73
2021/11/08 21:56:43;;;;;;;9.00;8.10;;;7.30;38.90;;;;;;10344634;28;20309;-73
2021/11/08 22:01:46;;;;;;;11.17;8.17;;;7.30;39.10;;;;;;10341365;28;20260;-68
2021/11/08 22:06:51;;;;;;;7.47;6.70;;;7.30;39.00;;;;;;10342944;28;20222;-68
2021/11/08 22:11:55;;;;;;;9.00;6.97;;;7.20;38.70;;;;;;10340698;28;20319;-68
2021/11/08 22:16:58;;;;;;;14.07;10.23;;;7.20;39.00;;;;;;10339870;28;20719;-68
2021/11/08 22:22:03;;;;;;;11.60;8.30;;;7.10;39.20;;;;;;10340853;28;20231;-68
2021/11/08 22:27:07;;;;;;;10.63;8.23;;;7.10;39.00;;;;;;10333024;28;20640;-68
2021/11/08 22:32:10;;;;;;;11.90;8.80;;;7.00;39.10;;;;;;10335058;28;20227;-68
2021/11/08 22:37:16;;;;;;;10.83;8.57;;;7.00;39.30;;;;;;10334754;28;20305;-73
2021/11/08 22:42:20;;;;;;;11.63;8.50;;;7.00;39.20;;;;;;10336678;28;20227;-73
2021/11/08 22:47:23;;;;;;;8.33;7.33;;;6.90;39.00;;;;;;10338852;28;20277;-73
2021/11/08 22:52:28;;;;;;;11.77;7.53;;;6.90;39.00;;;;;;10334345;28;20658;-73
2021/11/08 22:57:32;;;;;;;8.70;6.83;;;6.80;39.00;;;;;;10335234;28;20324;-73
2021/11/08 23:02:35;;;;;;;9.73;6.50;;;6.80;39.00;;;;;;10334815;28;20234;-73
2021/11/08 23:07:40;;;;;;;7.63;6.57;;;6.80;39.00;;;;;;10342499;28;20281;-72
2021/11/08 23:12:43;;;;;;;7.67;6.37;;;6.70;39.00;;;;;;10339806;28;20265;-73
2021/11/08 23:17:46;;;;;;;8.13;6.87;;;6.70;39.20;;;;;;10343787;28;20333;-73
2021/11/08 23:22:55;;;;;;;9.13;6.30;;;6.60;39.00;;;;;;10340348;28;23928;-73
2021/11/08 23:27:58;;;;;;;8.63;6.40;;;6.60;39.10;;;;;;10339639;28;20219;-73
2021/11/08 23:33:02;;;;;;;9.33;6.33;;;6.50;39.20;;;;;;10342777;28;20262;-72
2021/11/08 23:38:11;;;;;;;7.00;6.30;;;6.50;39.20;;;;;;10347064;28;20678;-73
2021/11/08 23:43:14;;;;;;;7.43;6.07;;;6.50;39.20;;;;;;10340396;28;20318;-73
2021/11/08 23:48:18;;;;;;;8.20;6.20;;;6.40;39.20;;;;;;10344808;28;20638;-73
2021/11/08 23:53:23;;;;;;;7.93;6.93;;;6.40;39.10;;;;;;10340496;28;21322;-73
2021/11/08 23:58:27;;;;;;;7.17;6.37;;;6.30;39.00;;;;;;10335828;28;20698;-73
